Bermuda Islander — PBDA — position and weather

sailwx.info

Track history (hours):
 
Tides and Currents Weather Stations Pressure Air Temp Water Temp Dewpoint Dewpoint Depression Visibility Wind Speed Wind Dir Waves Ship Positions

Bermuda Islander

Last reported at 2018-Jun-19 02:10 UTC. Time now 2018-Jun-23 04:44 UTC.
Position N 39°16' W 075°20'.

Length 100 m; draft 3.9 m.

Type: Ship (hazmat cat B). MMSI: 244820000.

Date/timePositionNaut miles runAvg speedWind from/ knotsBaromVisibWave heightAir tempDewpointWater temp
2018-Jun-19 02:10N 39°16' W 075°20'215.4
2018-Jun-19 02:00N 39°17' W 075°22'815.9
2018-Jun-19 01:30N 39°23' W 075°29'714.9
2018-Jun-19 01:00N 39°30' W 075°33'5 9.3
2018-Jun-19 00:29N 39°34' W 075°30'1 1.9
2018-Jun-19 00:00N 39°34' W 075°29'0 0.0
2018-Jun-18 23:30N 39°34' W 075°29'0 0.0
2018-Jun-18 23:00N 39°34' W 075°29'0 0.0
2018-Jun-18 22:30N 39°34' W 075°29'0 0.0
2018-Jun-18 22:00N 39°34' W 075°29'0 0.0
2018-Jun-18 21:30N 39°34' W 075°29'0 0.0
2018-Jun-18 20:59N 39°34' W 075°29'0 0.0
2018-Jun-18 20:29N 39°34' W 075°29'0 0.0
2018-Jun-18 20:00N 39°34' W 075°29'0 0.0
2018-Jun-18 19:29N 39°34' W 075°29'0 0.0
2018-Jun-18 18:57N 39°34' W 075°29'0 0.0
2018-Jun-18 18:29N 39°34' W 075°29'0 0.0
2018-Jun-18 17:53N 39°34' W 075°29'0 0.0
2018-Jun-18 17:29N 39°34' W 075°29'0 0.0
2018-Jun-18 16:59N 39°34' W 075°29'0 0.0
2018-Jun-18 16:29N 39°34' W 075°29'0 0.0
2018-Jun-18 15:59N 39°34' W 075°29'0 0.0
2018-Jun-18 15:26N 39°34' W 075°29'0 0.0
2018-Jun-18 14:59N 39°34' W 075°29'0 0.0
2018-Jun-18 14:29N 39°34' W 075°29'0 0.0
2018-Jun-18 13:59N 39°34' W 075°29'0 0.0
2018-Jun-18 13:29N 39°34' W 075°29'0 0.0
2018-Jun-18 12:56N 39°34' W 075°29'0 0.0
2018-Jun-18 12:29N 39°34' W 075°29'0 0.0
2018-Jun-18 11:59N 39°34' W 075°29'0 0.0
2018-Jun-18 11:29N 39°34' W 075°29'0 0.0
2018-Jun-18 11:00N 39°34' W 075°29'0 0.4
2018-Jun-18 10:30N 39°34' W 075°29'3 6.1
2018-Jun-18 10:00N 39°33' W 075°33'0 0.6
2018-Jun-18 09:28N 39°32' W 075°33'0 0.2
2018-Jun-18 08:55N 39°33' W 075°33'0 0.0
2018-Jun-18 08:28N 39°33' W 075°33'0 0.0
2018-Jun-18 07:58N 39°33' W 075°33'0 0.0
2018-Jun-18 07:28N 39°33' W 075°33'0 0.0
2018-Jun-18 06:58N 39°33' W 075°33'0 0.0
2018-Jun-18 06:28N 39°33' W 075°33'0 0.0
2018-Jun-18 05:58N 39°33' W 075°33'0 0.0
2018-Jun-18 05:28N 39°33' W 075°33'0 0.0
2018-Jun-18 04:58N 39°33' W 075°33'0 0.0
2018-Jun-18 04:28N 39°33' W 075°33'0 0.0
2018-Jun-18 03:58N 39°33' W 075°33'0 0.0
2018-Jun-18 03:28N 39°33' W 075°33'0 0.1
2018-Jun-18 02:58N 39°32' W 075°33'0 0.2
2018-Jun-18 02:28N 39°32' W 075°33'0 0.0
2018-Jun-18 01:55N 39°32' W 075°33'0 0.0
2018-Jun-18 01:28N 39°32' W 075°33'0 0.0
2018-Jun-18 00:58N 39°32' W 075°33'0 0.0
2018-Jun-18 00:28N 39°32' W 075°33'0 0.0
2018-Jun-17 23:55N 39°32' W 075°33'0 0.0
2018-Jun-17 23:28N 39°32' W 075°33'0 0.0
2018-Jun-17 22:58N 39°32' W 075°33'0 0.0
2018-Jun-17 22:28N 39°32' W 075°33'0 0.1
2018-Jun-17 21:55N 39°32' W 075°33'0 0.2
2018-Jun-17 21:19N 39°33' W 075°33'0 0.0
2018-Jun-17 20:58N 39°33' W 075°33'0 0.0
2018-Jun-17 20:28N 39°33' W 075°33'0 0.0
2018-Jun-17 19:55N 39°33' W 075°33'0 0.0
2018-Jun-17 19:28N 39°33' W 075°33'0 0.0
2018-Jun-17 18:55N 39°33' W 075°33'0 0.0
2018-Jun-17 18:28N 39°33' W 075°33'1 1.5
2018-Jun-17 18:00N 39°32' W 075°33'4 8.4
2018-Jun-17 17:30N 39°28' W 075°34'815.5
2018-Jun-17 17:00N 39°22' W 075°27'1315.2
2018-Jun-17 16:07N 39°11' W 075°17'914.9
2018-Jun-17 15:30N 39°03' W 075°10'815.1
2018-Jun-17 15:00N 38°56' W 075°06'  
2018-Jun-12 11:51N 37°46' W 073°40'411.0
2018-Jun-12 11:30N 37°48' W 073°44'2710.9
2018-Jun-12 09:02N 38°05' W 074°10'011.1
2018-Jun-12 09:00N 38°06' W 074°10'1111.2
2018-Jun-12 08:03N 38°12' W 074°21'111.6
2018-Jun-12 07:57N 38°13' W 074°22'511.8
2018-Jun-12 07:29N 38°16' W 074°27'612.0
2018-Jun-12 06:58N 38°20' W 074°34'611.8
2018-Jun-12 06:28N 38°24' W 074°40'612.2
2018-Jun-12 06:00N 38°28' W 074°45'613.0
2018-Jun-12 05:30N 38°33' W 074°49'713.4
2018-Jun-12 05:00N 38°39' W 074°54'714.4
2018-Jun-12 04:31N 38°44' W 075°00'713.9
2018-Jun-12 04:00N 38°50' W 075°05'815.2
2018-Jun-12 03:30N 38°58' W 075°07'815.3
2018-Jun-12 03:00N 39°05' W 075°11'714.3
2018-Jun-12 02:31N 39°11' W 075°16'713.5
2018-Jun-12 02:00N 39°16' W 075°21'612.3
2018-Jun-12 01:30N 39°21' W 075°26'611.7
2018-Jun-12 01:01N 39°25' W 075°31'510.9
2018-Jun-12 00:31N 39°31' W 075°33'4 7.8
2018-Jun-12 00:00N 39°34' W 075°31'1 2.9
2018-Jun-11 23:29N 39°34' W 075°29'0 0.0
2018-Jun-11 22:59N 39°34' W 075°29'0 0.0
2018-Jun-11 22:29N 39°34' W 075°29'0 0.0
2018-Jun-11 21:59N 39°34' W 075°29'0 0.0
2018-Jun-11 21:29N 39°34' W 075°29'0 0.0
2018-Jun-11 20:59N 39°34' W 075°29'0 0.0
2018-Jun-11 20:29N 39°34' W 075°29'0 0.0
2018-Jun-11 19:59N 39°34' W 075°29'0 0.0
2018-Jun-11 19:29N 39°34' W 075°29'0 0.0
2018-Jun-11 18:59N 39°34' W 075°29'0 0.0
2018-Jun-11 18:29N 39°34' W 075°29'0 0.0
2018-Jun-11 17:59N 39°34' W 075°29'0 0.0
2018-Jun-11 17:29N 39°34' W 075°29'0 0.0
2018-Jun-11 16:59N 39°34' W 075°29'0 0.0
2018-Jun-11 16:29N 39°34' W 075°29'0 0.0
2018-Jun-11 15:59N 39°34' W 075°29'0 0.0
2018-Jun-11 15:29N 39°34' W 075°29'0 0.0
2018-Jun-11 14:59N 39°34' W 075°29'0 0.0
2018-Jun-11 14:29N 39°34' W 075°29'0 0.0
2018-Jun-11 13:59N 39°34' W 075°29'0 0.0
2018-Jun-11 13:29N 39°34' W 075°29'0 0.0
2018-Jun-11 12:59N 39°34' W 075°29'0 0.0
2018-Jun-11 12:29N 39°34' W 075°29'0 0.0
2018-Jun-11 11:56N 39°34' W 075°29'0 0.0
2018-Jun-11 11:26N 39°34' W 075°29'0 0.0
2018-Jun-11 11:00N 39°34' W 075°29'1 2.0
2018-Jun-11 10:30N 39°34' W 075°30'3 5.7
2018-Jun-11 09:58N 39°32' W 075°33'0 0.1
2018-Jun-11 09:28N 39°32' W 075°33'0 0.1
2018-Jun-11 08:58N 39°32' W 075°33'0 0.0
2018-Jun-11 08:28N 39°32' W 075°33'0 0.0
2018-Jun-11 07:58N 39°32' W 075°33'0 0.0
2018-Jun-11 07:28N 39°32' W 075°33'0 0.0
2018-Jun-11 06:58N 39°32' W 075°33'0 0.0
2018-Jun-11 06:28N 39°32' W 075°33'0 0.0
2018-Jun-11 05:58N 39°32' W 075°33'0 0.0
2018-Jun-11 05:28N 39°32' W 075°33'0 0.0
2018-Jun-11 04:58N 39°32' W 075°33'0 0.0
2018-Jun-11 04:28N 39°32' W 075°33'0 0.0
2018-Jun-11 03:58N 39°32' W 075°33'0 0.0
2018-Jun-11 03:28N 39°32' W 075°33'0 0.1
2018-Jun-11 02:58N 39°32' W 075°33'0 0.2
2018-Jun-11 02:28N 39°32' W 075°33'0 0.1
2018-Jun-11 01:58N 39°32' W 075°33'0 0.0
2018-Jun-11 01:28N 39°32' W 075°33'0 0.0
2018-Jun-11 00:58N 39°32' W 075°33'0 0.0
2018-Jun-11 00:25N 39°32' W 075°33'0 0.0
2018-Jun-10 23:58N 39°32' W 075°33'0 0.0
2018-Jun-10 23:28N 39°32' W 075°33'0 0.1
2018-Jun-10 23:00N 39°32' W 075°33'0 0.0
2018-Jun-10 22:28N 39°32' W 075°33'0 0.1
2018-Jun-10 21:58N 39°32' W 075°33'0 0.1
2018-Jun-10 21:28N 39°32' W 075°33'0 0.1
2018-Jun-10 20:55N 39°32' W 075°33'0 0.1
2018-Jun-10 20:25N 39°32' W 075°33'0 0.1
2018-Jun-10 19:58N 39°32' W 075°33'0 0.0
2018-Jun-10 19:28N 39°32' W 075°33'0 0.0
2018-Jun-10 18:58N 39°32' W 075°33'0 0.0
2018-Jun-10 18:28N 39°32' W 075°33'0 0.1
2018-Jun-10 17:56N 39°32' W 075°33'2 4.8
2018-Jun-10 17:30N 39°30' W 075°34'511.0
2018-Jun-10 17:00N 39°25' W 075°31'1419.9
2018-Jun-10 16:17N 39°14' W 075°18'3 8.6
2018-Jun-10 15:59N 39°12' W 075°17'714.4
2018-Jun-10 15:28N 39°06' W 075°11'  
Track history (hours):
 
Tides and Currents Weather Stations Pressure Air Temp Water Temp Dewpoint Dewpoint Depression Visibility Wind Speed Wind Dir Waves Ship Positions

Bermuda Islander

Last reported at 2018-Jun-19 02:10 UTC. Time now 2018-Jun-23 04:44 UTC.
Position N 39°16' W 075°20'.

Length 100 m; draft 3.9 m.

Type: Ship (hazmat cat B). MMSI: 244820000.

Date/timePositionNaut miles runAvg speedWind from/ knotsBaromVisibWave heightAir tempDewpointWater temp
2018-Jun-19 02:10N 39°16' W 075°20'215.4
2018-Jun-19 02:00N 39°17' W 075°22'815.9
2018-Jun-19 01:30N 39°23' W 075°29'714.9
2018-Jun-19 01:00N 39°30' W 075°33'5 9.3
2018-Jun-19 00:29N 39°34' W 075°30'1 1.9
2018-Jun-19 00:00N 39°34' W 075°29'0 0.0
2018-Jun-18 23:30N 39°34' W 075°29'0 0.0
2018-Jun-18 23:00N 39°34' W 075°29'0 0.0
2018-Jun-18 22:30N 39°34' W 075°29'0 0.0
2018-Jun-18 22:00N 39°34' W 075°29'0 0.0
2018-Jun-18 21:30N 39°34' W 075°29'0 0.0
2018-Jun-18 20:59N 39°34' W 075°29'0 0.0
2018-Jun-18 20:29N 39°34' W 075°29'0 0.0
2018-Jun-18 20:00N 39°34' W 075°29'0 0.0
2018-Jun-18 19:29N 39°34' W 075°29'0 0.0
2018-Jun-18 18:57N 39°34' W 075°29'0 0.0
2018-Jun-18 18:29N 39°34' W 075°29'0 0.0
2018-Jun-18 17:53N 39°34' W 075°29'0 0.0
2018-Jun-18 17:29N 39°34' W 075°29'0 0.0
2018-Jun-18 16:59N 39°34' W 075°29'0 0.0
2018-Jun-18 16:29N 39°34' W 075°29'0 0.0
2018-Jun-18 15:59N 39°34' W 075°29'0 0.0
2018-Jun-18 15:26N 39°34' W 075°29'0 0.0
2018-Jun-18 14:59N 39°34' W 075°29'0 0.0
2018-Jun-18 14:29N 39°34' W 075°29'0 0.0
2018-Jun-18 13:59N 39°34' W 075°29'0 0.0
2018-Jun-18 13:29N 39°34' W 075°29'0 0.0
2018-Jun-18 12:56N 39°34' W 075°29'0 0.0
2018-Jun-18 12:29N 39°34' W 075°29'0 0.0
2018-Jun-18 11:59N 39°34' W 075°29'0 0.0
2018-Jun-18 11:29N 39°34' W 075°29'0 0.0
2018-Jun-18 11:00N 39°34' W 075°29'0 0.4
2018-Jun-18 10:30N 39°34' W 075°29'3 6.1
2018-Jun-18 10:00N 39°33' W 075°33'0 0.6
2018-Jun-18 09:28N 39°32' W 075°33'0 0.2
2018-Jun-18 08:55N 39°33' W 075°33'0 0.0
2018-Jun-18 08:28N 39°33' W 075°33'0 0.0
2018-Jun-18 07:58N 39°33' W 075°33'0 0.0
2018-Jun-18 07:28N 39°33' W 075°33'0 0.0
2018-Jun-18 06:58N 39°33' W 075°33'0 0.0
2018-Jun-18 06:28N 39°33' W 075°33'0 0.0
2018-Jun-18 05:58N 39°33' W 075°33'0 0.0
2018-Jun-18 05:28N 39°33' W 075°33'0 0.0
2018-Jun-18 04:58N 39°33' W 075°33'0 0.0
2018-Jun-18 04:28N 39°33' W 075°33'0 0.0
2018-Jun-18 03:58N 39°33' W 075°33'0 0.0
2018-Jun-18 03:28N 39°33' W 075°33'0 0.1
2018-Jun-18 02:58N 39°32' W 075°33'0 0.2
2018-Jun-18 02:28N 39°32' W 075°33'0 0.0
2018-Jun-18 01:55N 39°32' W 075°33'0 0.0
2018-Jun-18 01:28N 39°32' W 075°33'0 0.0
2018-Jun-18 00:58N 39°32' W 075°33'0 0.0
2018-Jun-18 00:28N 39°32' W 075°33'0 0.0
2018-Jun-17 23:55N 39°32' W 075°33'0 0.0
2018-Jun-17 23:28N 39°32' W 075°33'0 0.0
2018-Jun-17 22:58N 39°32' W 075°33'0 0.0
2018-Jun-17 22:28N 39°32' W 075°33'0 0.1
2018-Jun-17 21:55N 39°32' W 075°33'0 0.2
2018-Jun-17 21:19N 39°33' W 075°33'0 0.0
2018-Jun-17 20:58N 39°33' W 075°33'0 0.0
2018-Jun-17 20:28N 39°33' W 075°33'0 0.0
2018-Jun-17 19:55N 39°33' W 075°33'0 0.0
2018-Jun-17 19:28N 39°33' W 075°33'0 0.0
2018-Jun-17 18:55N 39°33' W 075°33'0 0.0
2018-Jun-17 18:28N 39°33' W 075°33'1 1.5
2018-Jun-17 18:00N 39°32' W 075°33'4 8.4
2018-Jun-17 17:30N 39°28' W 075°34'815.5
2018-Jun-17 17:00N 39°22' W 075°27'1315.2
2018-Jun-17 16:07N 39°11' W 075°17'914.9
2018-Jun-17 15:30N 39°03' W 075°10'815.1
2018-Jun-17 15:00N 38°56' W 075°06'  
2018-Jun-12 11:51N 37°46' W 073°40'411.0
2018-Jun-12 11:30N 37°48' W 073°44'2710.9
2018-Jun-12 09:02N 38°05' W 074°10'011.1
2018-Jun-12 09:00N 38°06' W 074°10'1111.2
2018-Jun-12 08:03N 38°12' W 074°21'111.6
2018-Jun-12 07:57N 38°13' W 074°22'511.8
2018-Jun-12 07:29N 38°16' W 074°27'612.0
2018-Jun-12 06:58N 38°20' W 074°34'611.8
2018-Jun-12 06:28N 38°24' W 074°40'612.2
2018-Jun-12 06:00N 38°28' W 074°45'613.0
2018-Jun-12 05:30N 38°33' W 074°49'713.4
2018-Jun-12 05:00N 38°39' W 074°54'714.4
2018-Jun-12 04:31N 38°44' W 075°00'713.9
2018-Jun-12 04:00N 38°50' W 075°05'815.2
2018-Jun-12 03:30N 38°58' W 075°07'815.3
2018-Jun-12 03:00N 39°05' W 075°11'714.3
2018-Jun-12 02:31N 39°11' W 075°16'713.5
2018-Jun-12 02:00N 39°16' W 075°21'612.3
2018-Jun-12 01:30N 39°21' W 075°26'611.7
2018-Jun-12 01:01N 39°25' W 075°31'510.9
2018-Jun-12 00:31N 39°31' W 075°33'4 7.8
2018-Jun-12 00:00N 39°34' W 075°31'1 2.9
2018-Jun-11 23:29N 39°34' W 075°29'0 0.0
2018-Jun-11 22:59N 39°34' W 075°29'0 0.0
2018-Jun-11 22:29N 39°34' W 075°29'0 0.0
2018-Jun-11 21:59N 39°34' W 075°29'0 0.0
2018-Jun-11 21:29N 39°34' W 075°29'0 0.0
2018-Jun-11 20:59N 39°34' W 075°29'0 0.0
2018-Jun-11 20:29N 39°34' W 075°29'0 0.0
2018-Jun-11 19:59N 39°34' W 075°29'0 0.0
2018-Jun-11 19:29N 39°34' W 075°29'0 0.0
2018-Jun-11 18:59N 39°34' W 075°29'0 0.0
2018-Jun-11 18:29N 39°34' W 075°29'0 0.0
2018-Jun-11 17:59N 39°34' W 075°29'0 0.0
2018-Jun-11 17:29N 39°34' W 075°29'0 0.0
2018-Jun-11 16:59N 39°34' W 075°29'0 0.0
2018-Jun-11 16:29N 39°34' W 075°29'0 0.0
2018-Jun-11 15:59N 39°34' W 075°29'0 0.0
2018-Jun-11 15:29N 39°34' W 075°29'0 0.0
2018-Jun-11 14:59N 39°34' W 075°29'0 0.0
2018-Jun-11 14:29N 39°34' W 075°29'0 0.0
2018-Jun-11 13:59N 39°34' W 075°29'0 0.0
2018-Jun-11 13:29N 39°34' W 075°29'0 0.0
2018-Jun-11 12:59N 39°34' W 075°29'0 0.0
2018-Jun-11 12:29N 39°34' W 075°29'0 0.0
2018-Jun-11 11:56N 39°34' W 075°29'0 0.0
2018-Jun-11 11:26N 39°34' W 075°29'0 0.0
2018-Jun-11 11:00N 39°34' W 075°29'1 2.0
2018-Jun-11 10:30N 39°34' W 075°30'3 5.7
2018-Jun-11 09:58N 39°32' W 075°33'0 0.1
2018-Jun-11 09:28N 39°32' W 075°33'0 0.1
2018-Jun-11 08:58N 39°32' W 075°33'0 0.0
2018-Jun-11 08:28N 39°32' W 075°33'0 0.0
2018-Jun-11 07:58N 39°32' W 075°33'0 0.0
2018-Jun-11 07:28N 39°32' W 075°33'0 0.0
2018-Jun-11 06:58N 39°32' W 075°33'0 0.0
2018-Jun-11 06:28N 39°32' W 075°33'0 0.0
2018-Jun-11 05:58N 39°32' W 075°33'0 0.0
2018-Jun-11 05:28N 39°32' W 075°33'0 0.0
2018-Jun-11 04:58N 39°32' W 075°33'0 0.0
2018-Jun-11 04:28N 39°32' W 075°33'0 0.0
2018-Jun-11 03:58N 39°32' W 075°33'0 0.0
2018-Jun-11 03:28N 39°32' W 075°33'0 0.1
2018-Jun-11 02:58N 39°32' W 075°33'0 0.2
2018-Jun-11 02:28N 39°32' W 075°33'0 0.1
2018-Jun-11 01:58N 39°32' W 075°33'0 0.0
2018-Jun-11 01:28N 39°32' W 075°33'0 0.0
2018-Jun-11 00:58N 39°32' W 075°33'0 0.0
2018-Jun-11 00:25N 39°32' W 075°33'0 0.0
2018-Jun-10 23:58N 39°32' W 075°33'0 0.0
2018-Jun-10 23:28N 39°32' W 075°33'0 0.1
2018-Jun-10 23:00N 39°32' W 075°33'0 0.0
2018-Jun-10 22:28N 39°32' W 075°33'0 0.1
2018-Jun-10 21:58N 39°32' W 075°33'0 0.1
2018-Jun-10 21:28N 39°32' W 075°33'0 0.1
2018-Jun-10 20:55N 39°32' W 075°33'0 0.1
2018-Jun-10 20:25N 39°32' W 075°33'0 0.1
2018-Jun-10 19:58N 39°32' W 075°33'0 0.0
2018-Jun-10 19:28N 39°32' W 075°33'0 0.0
2018-Jun-10 18:58N 39°32' W 075°33'0 0.0
2018-Jun-10 18:28N 39°32' W 075°33'0 0.1
2018-Jun-10 17:56N 39°32' W 075°33'2 4.8
2018-Jun-10 17:30N 39°30' W 075°34'511.0
2018-Jun-10 17:00N 39°25' W 075°31'1419.9
2018-Jun-10 16:17N 39°14' W 075°18'3 8.6
2018-Jun-10 15:59N 39°12' W 075°17'714.4
2018-Jun-10 15:28N 39°06' W 075°11'  

Dump ship's entire track history